Latest Weather Observations for Coondewanna

IDW60801

Issued at 7:35 pm WST Tuesday 30 September 2014 (issued every 30 minutes, with the page automatically refreshed every 10 minutes)

About weather observations | Map of weather stations | Latest weather observations for WA | Other Formats
Station Details ID: 505051 Name: COONDEWANNA Lat: -22.96 Lon: 118.81 Height: 697.63 m
Data from the previous 72 hours. | See also: Recent months for locations in Western Australia
Date/Time
WST
Temp
°C
App
Temp
°C
Dew
Point
Rel
Hum
%
Delta-T
°C
Wind Press
QNH
hPa
Press
MSL
hPa
Rain
since 9 am
mm
Dir
 
Spd
km/h
Gust
km/h
Spd
kts
Gust
kts
30/07:30pm 27.5 23.9 0.3 17 13.3 E 9 11 5 6 1016.9 1013.5 0.0
30/07:00pm 28.4 24.7 0.2 16 13.8 ENE 9 9 5 5 1016.4 1013.1 0.0
30/06:30pm 30.2 26.6 0.7 15 14.8 ENE 9 13 5 7 1016.1 1012.8 0.0
30/06:00pm 31.0 27.0 0.4 14 15.3 NE 11 15 6 8 1015.8 1012.5 0.0
30/05:30pm 31.9 26.7 0.1 13 15.9 NE 17 22 9 12 1015.6 1012.2 0.0
30/05:00pm 32.2 27.8 0.3 13 16.0 NE 13 20 7 11 1015.4 1012.0 0.0
30/04:30pm 32.9 27.3 -0.2 12 16.6 NNE 19 32 10 17 1015.2 1011.8 0.0
30/04:00pm 33.0 28.5 -0.2 12 16.7 E 13 20 7 11 1015.2 1011.8 0.0
30/03:30pm 32.3 27.4 -0.7 12 16.3 NNE 15 28 8 15 1015.3 1011.9 0.0
30/03:00pm 33.2 27.4 0.0 12 16.7 ENE 20 24 11 13 1015.0 1011.7 0.0
30/02:30pm 33.3 28.5 0.1 12 16.8 N 15 26 8 14 1015.3 1011.9 0.0
30/02:00pm 32.5 26.3 -0.5 12 16.4 N 22 30 12 16 1015.4 1012.0 0.0
30/01:30pm 33.3 27.5 0.1 12 16.8 NE 20 35 11 19 1015.9 1012.6 0.0
30/01:00pm 32.0 26.2 0.2 13 15.9 N 20 26 11 14 1016.2 1012.9 0.0
30/12:30pm 31.8 26.0 0.0 13 15.9 NE 20 35 11 19 1016.5 1013.2 0.0
30/12:00pm 31.6 26.4 -0.1 13 15.8 ESE 17 22 9 12 1016.9 1013.5 0.0
30/11:30am 31.8 26.0 0.0 13 15.9 E 20 32 11 17 1017.4 1014.1 0.0
30/11:00am 30.7 23.3 -0.8 13 15.4 E 28 39 15 21 1017.7 1014.4 0.0
30/10:30am 30.2 21.8 -1.2 13 15.2 E 33 43 18 23 1017.9 1014.6 0.0
30/10:00am 29.2 20.8 -1.0 14 14.6 E 33 46 18 25 1018.1 1014.8 0.0
30/09:46am 28.8 20.0 -1.3 14 14.4 E 35 46 19 25 1018.3 1015.0 0.0
30/09:30am 28.1 18.2 -0.9 15 13.9 E 41 48 22 26 1018.4 1015.1 0.0
30/09:27am 28.1 19.0 -0.9 15 13.9 E 37 48 20 26 1018.3 1015.0 0.0
30/09:22am 28.2 20.4 -0.9 15 13.9 E 30 48 16 26 1018.4 1015.1 0.0
30/09:00am 26.8 19.2 -2.0 15 13.4 ESE 28 35 15 19 1018.7 1015.4 -
30/08:30am 25.9 18.7 -1.8 16 12.8 E 26 37 14 20 1018.8 1015.5 -
30/08:00am 24.0 16.8 -1.8 18 11.8 E 26 39 14 21 1018.7 1015.4 -
30/07:30am 22.9 17.8 -1.9 19 11.2 ESE 15 24 8 13 1018.7 1015.4 -
30/07:00am 21.7 17.8 -1.6 21 10.5 E 9 17 5 9 1018.5 1015.2 -
30/06:30am 20.2 16.8 -0.4 25 9.4 E 7 11 4 6 1018.1 1014.8 -
30/06:00am 15.5 12.4 0.1 35 6.8 ENE 6 9 3 5 1017.7 1014.4 -
30/05:30am 16.6 13.4 0.7 34 7.2 N 7 11 4 6 1017.6 1014.3 -
30/05:00am 14.8 12.5 0.3 37 6.4 N 2 7 1 4 1017.4 1014.1 -
30/04:30am 15.2 12.4 -0.1 35 6.7 ENE 4 9 2 5 1017.3 1014.0 -
30/04:00am 18.0 14.4 0.6 31 7.9 SSW 9 13 5 7 1017.3 1014.0 -
30/03:30am 17.1 13.5 0.7 33 7.5 E 9 13 5 7 1017.2 1013.9 -
30/03:00am 17.2 13.9 0.4 32 7.6 WNW 7 9 4 5 1017.0 1013.7 0.0
30/02:30am 18.7 15.1 0.8 30 8.3 S 9 11 5 6 1017.0 1013.7 -
30/02:00am 19.5 16.5 0.5 28 8.8 SSW 6 11 3 6 1017.1 1013.8 -
30/01:30am 21.2 17.3 1.0 26 9.5 WSW 11 20 6 11 1017.2 1013.9 -
30/01:00am 20.2 17.2 1.1 28 9.0 W 6 11 3 6 1017.3 1014.0 -
30/12:30am 18.9 15.7 0.5 29 8.5 SW 7 9 4 5 1017.5 1014.2 -
30/12:00am 20.7 18.9 1.1 27 9.2 SW 0 0 0 0 1017.5 1014.2 -
 
Date/Time
WST
Temp
°C
App
Temp
°C
Dew
Point
Rel
Hum
%
Delta-T
°C
Wind Press
QNH
hPa
Press
MSL
hPa
Rain
since 9 am
mm
Dir
 
Spd
km/h
Gust
km/h
Spd
kts
Gust
kts
29/11:30pm 20.4 17.4 0.8 27 9.2 SW 6 7 3 4 1017.6 1014.3 -
29/11:00pm 21.3 18.3 1.0 26 9.6 SW 6 9 3 5 1017.7 1014.4 -
29/10:30pm 20.7 17.7 1.1 27 9.2 WSW 6 7 3 4 1017.9 1014.6 -
29/10:00pm 21.7 19.2 1.4 26 9.7 WSW 4 7 2 4 1018.0 1014.7 -
29/09:30pm 23.0 20.5 1.4 24 10.4 WSW 4 7 2 4 1017.9 1014.6 -
29/09:00pm 24.3 21.2 1.2 22 11.2 WSW 7 9 4 5 1017.8 1014.5 -
29/08:30pm 25.2 21.3 1.3 21 11.7 SW 11 13 6 7 1017.5 1014.2 -
29/08:00pm 25.9 22.4 1.2 20 12.1 SW 9 11 5 6 1017.3 1014.0 -
29/07:30pm 26.8 23.3 1.3 19 12.6 SW 9 11 5 6 1016.8 1013.4 -
29/07:00pm 28.1 24.7 1.6 18 13.3 WSW 9 13 5 7 1016.3 1013.0 -
29/06:30pm 28.8 25.3 1.3 17 13.8 WSW 9 11 5 6 1015.9 1012.6 -
29/06:00pm 29.3 25.0 0.9 16 14.2 W 13 17 7 9 1015.5 1012.1 -
29/05:30pm 30.1 25.0 0.6 15 14.7 WNW 17 22 9 12 1015.2 1011.8 -
29/05:00pm 30.9 26.5 0.3 14 15.3 WSW 13 20 7 11 1014.8 1011.5 -
29/04:30pm 30.5 25.1 1.0 15 14.9 NW 19 30 10 16 1014.7 1011.4 -
29/04:00pm 31.4 25.9 0.7 14 15.5 NW 19 26 10 14 1014.6 1011.3 -
29/03:30pm 31.7 27.0 1.0 14 15.6 NW 15 26 8 14 1014.6 1011.3 -
29/03:00pm 31.5 25.5 0.8 14 15.5 NW 22 35 12 19 1014.6 1011.3 0.0
29/02:30pm 31.2 25.6 1.5 15 15.2 NNW 20 30 11 16 1014.7 1011.4 0.0
29/02:00pm 30.8 24.6 2.1 16 14.8 WNW 24 35 13 19 1014.9 1011.6 0.0
29/01:30pm 30.8 25.5 2.1 16 14.8 NNW 19 30 10 16 1015.4 1012.0 0.0
29/01:00pm 29.4 25.2 1.8 17 14.0 WNW 13 33 7 18 1015.7 1012.4 0.0
29/12:30pm 30.1 25.6 2.4 17 14.3 NNW 15 22 8 12 1016.1 1012.8 0.0
29/12:00pm 29.5 24.7 2.7 18 13.8 NNW 17 28 9 15 1016.7 1013.3 0.0
29/11:30am 29.5 24.5 3.5 19 13.6 NNW 19 28 10 15 1017.2 1013.9 0.0
29/11:00am 29.0 23.7 3.1 19 13.4 NNW 20 30 11 16 1017.8 1014.5 0.0
29/10:30am 27.3 23.5 3.7 22 12.2 W 13 22 7 12 1018.0 1014.7 0.0
29/10:00am 27.2 23.4 3.7 22 12.1 E 13 20 7 11 1018.1 1014.8 0.0
29/09:30am 26.1 23.0 3.4 23 11.6 ENE 9 19 5 10 1018.4 1015.1 0.0
29/09:00am 25.6 22.1 3.5 24 11.3 E 11 26 6 14 1018.5 1015.2 0.0
29/08:30am 24.4 20.8 3.1 25 10.7 ESE 11 17 6 9 1018.6 1015.3 0.0
29/08:00am 23.5 20.0 3.4 27 10.1 E 11 19 6 10 1018.5 1015.2 0.0
29/07:30am 19.3 17.9 3.5 35 7.7 CALM 0 0 0 0 1018.4 1015.1 0.0
29/07:00am 16.0 14.4 2.4 40 6.3 CALM 0 0 0 0 1018.1 1014.8 0.0
29/06:30am 13.6 11.9 1.9 45 5.3 CALM 0 0 0 0 1017.8 1014.5 0.0
29/06:00am 11.6 9.8 1.0 48 4.6 CALM 0 0 0 0 1017.6 1014.3 0.0
29/05:30am 12.6 10.9 1.6 47 4.9 CALM 0 0 0 0 1017.2 1013.9 0.0
29/05:00am 12.9 11.2 1.6 46 5.0 CALM 0 0 0 0 1016.9 1013.5 0.0
29/04:30am 12.9 10.4 1.3 45 5.2 SW 4 6 2 3 1016.9 1013.5 0.0
29/04:00am 12.9 10.0 1.6 46 5.0 SW 6 9 3 5 1016.8 1013.4 0.0
29/03:30am 14.1 11.7 2.4 45 5.4 SW 4 7 2 4 1016.5 1013.2 0.0
29/03:00am 14.7 12.7 2.3 43 5.7 SW 2 7 1 4 1016.7 1013.3 0.0
29/02:30am 15.2 13.5 2.1 41 6.0 CALM 0 0 0 0 1016.9 1013.5 0.0
29/02:00am 15.1 13.4 1.6 40 6.1 CALM 0 0 0 0 1017.2 1013.9 0.0
29/01:30am 15.9 13.1 2.0 39 6.4 SW 6 7 3 4 1017.1 1013.8 0.0
29/01:00am 17.3 14.6 2.9 38 6.8 SW 6 7 3 4 1017.1 1013.8 0.0
29/12:30am 17.5 14.5 2.3 36 7.2 SW 7 9 4 5 1017.2 1013.9 0.0
29/12:00am 16.9 13.9 2.1 37 6.9 WSW 7 7 4 4 1017.1 1013.8 0.0
 
Date/Time
WST
Temp
°C
App
Temp
°C
Dew
Point
Rel
Hum
%
Delta-T
°C
Wind Press
QNH
hPa
Press
MSL
hPa
Rain
since 9 am
mm
Dir
 
Spd
km/h
Gust
km/h
Spd
kts
Gust
kts
28/11:30pm 17.7 14.7 1.7 34 7.5 SW 7 11 4 6 1017.2 1013.9 0.0
28/11:00pm 18.0 16.2 1.5 33 7.7 CALM 0 0 0 0 1017.3 1014.0 0.0
28/10:30pm 18.8 17.2 2.2 33 7.9 CALM 0 0 0 0 1017.6 1014.3 0.0
28/10:00pm 18.8 17.1 1.8 32 8.0 CALM 0 4 0 2 1017.7 1014.4 0.0
28/09:30pm 19.8 17.0 2.2 31 8.4 SW 6 6 3 3 1017.7 1014.4 0.0
28/09:00pm 21.1 18.1 1.9 28 9.2 SW 7 9 4 5 1017.5 1014.2 0.0
28/08:30pm 21.6 19.3 2.8 29 9.2 SW 4 7 2 4 1017.4 1014.1 0.0
28/08:00pm 22.5 19.8 2.6 27 9.8 SW 6 7 3 4 1017.1 1013.8 0.0
28/07:30pm 23.7 20.8 2.5 25 10.5 SW 7 9 4 5 1016.9 1013.5 0.0
28/07:00pm 25.5 21.9 2.9 23 11.4 SW 11 17 6 9 1016.5 1013.2 0.0
28/06:30pm 26.4 21.7 3.0 22 11.9 SW 17 26 9 14 1016.2 1012.9 0.0
28/06:00pm 27.4 22.1 3.2 21 12.4 WSW 20 30 11 16 1015.9 1012.6 0.0
28/05:30pm 28.4 22.4 3.3 20 13.0 WSW 24 35 13 19 1015.7 1012.4 0.0
28/05:00pm 29.2 23.2 3.2 19 13.5 WSW 24 32 13 17 1015.6 1012.2 0.0
28/04:30pm 29.3 23.2 2.5 18 13.7 WSW 24 39 13 21 1015.5 1012.1 0.0
28/04:00pm 30.0 24.8 2.3 17 14.2 W 19 33 10 18 1015.4 1012.0 0.0
28/03:30pm 30.1 24.2 1.5 16 14.5 WSW 22 28 12 15 1015.5 1012.1 0.0
28/03:00pm 30.0 25.0 1.5 16 14.4 WSW 17 30 9 16 1015.5 1012.1 0.0
28/02:30pm 29.5 23.9 1.1 16 14.2 WNW 20 35 11 19 1015.8 1012.5 0.0
28/02:00pm 29.8 24.8 1.3 16 14.4 NNW 17 26 9 14 1016.1 1012.8 0.0
28/01:30pm 29.5 24.0 1.9 17 14.0 W 20 32 11 17 1016.4 1013.1 0.0
28/01:00pm 28.7 22.9 2.1 18 13.5 NW 22 39 12 21 1016.8 1013.4 0.0
28/12:36pm 28.4 21.8 1.8 18 13.4 WNW 26 44 14 24 1017.1 1013.8 0.0
28/12:30pm 28.2 22.3 1.7 18 13.3 NW 22 32 12 17 1017.2 1013.9 0.0
28/12:18pm 29.3 22.5 0.9 16 14.2 W 26 48 14 26 1017.3 1014.0 0.0
28/12:00pm 28.4 22.4 1.0 17 13.6 WSW 22 35 12 19 1017.6 1014.3 0.0
28/11:30am 27.7 21.2 0.5 17 13.3 WSW 24 35 13 19 1018.0 1014.7 0.0
28/11:17am 28.1 20.8 -0.1 16 13.7 WSW 28 46 15 25 1018.0 1014.7 0.0
28/11:00am 27.2 19.9 0.1 17 13.1 WSW 28 35 15 19 1018.4 1015.1 0.0
28/10:30am 26.4 19.2 0.9 19 12.5 WSW 28 37 15 20 1018.8 1015.5 0.0
28/10:00am 25.6 19.4 2.3 22 11.6 SW 24 39 13 21 1019.1 1015.8 0.0
28/09:30am 24.5 17.8 1.4 22 11.3 SW 26 35 14 19 1019.3 1016.0 0.0
28/09:00am 23.9 18.3 1.5 23 10.9 SW 20 28 11 15 1019.3 1016.0 0.0
28/08:30am 22.6 17.3 2.1 26 10.0 WSW 19 24 10 13 1019.5 1016.3 0.0
28/08:00am 20.5 18.1 2.3 30 8.7 W 4 7 2 4 1019.5 1016.3 0.0
28/07:30am 19.2 17.6 2.6 33 8.0 CALM 0 0 0 0 1019.2 1015.9 0.0
28/07:00am 17.0 15.3 1.8 36 7.0 CALM 0 0 0 0 1018.9 1015.6 0.0
28/06:30am 13.2 10.2 1.8 46 5.1 W 7 9 4 5 1018.8 1015.5 0.0
28/06:00am 11.5 8.9 0.9 48 4.6 W 4 6 2 3 1018.7 1015.4 0.0
28/05:30am 12.2 9.5 0.6 45 5.0 W 4 7 2 4 1018.6 1015.3 0.0
28/05:00am 11.8 8.8 0.9 47 4.7 W 6 7 3 4 1018.5 1015.2 0.0
28/04:30am 14.0 11.0 2.3 45 5.4 W 7 7 4 4 1018.1 1014.8 0.0
28/04:00am 13.9 11.0 1.5 43 5.6 W 6 7 3 4 1018.3 1015.0 0.0
28/03:30am 14.8 13.2 2.7 44 5.6 CALM 0 0 0 0 1017.7 1014.4 0.0
28/03:00am 17.1 14.4 3.8 41 6.4 W 7 9 4 5 1017.7 1014.4 0.0
28/02:30am 14.7 12.5 0.9 39 6.2 W 2 7 1 4 1017.8 1014.5 0.0
28/02:00am 16.1 14.4 1.8 38 6.6 CALM 0 0 0 0 1017.7 1014.4 0.0
28/01:30am 17.1 14.3 2.3 37 7.0 W 6 7 3 4 1017.7 1014.4 0.0
28/01:00am 17.2 14.9 2.8 38 6.8 W 4 6 2 3 1017.8 1014.5 0.0
28/12:30am 19.4 16.9 3.6 35 7.7 W 6 7 3 4 1017.8 1014.5 0.0
28/12:00am 21.8 18.5 4.4 32 8.8 W 11 15 6 8 1018.0 1014.7 0.0
 
Date/Time
WST
Temp
°C
App
Temp
°C
Dew
Point
Rel
Hum
%
Delta-T
°C
Wind Press
QNH
hPa
Press
MSL
hPa
Rain
since 9 am
mm
Dir
 
Spd
km/h
Gust
km/h
Spd
kts
Gust
kts
27/11:30pm 22.2 18.1 4.3 31 9.1 W 15 20 8 11 1018.1 1014.8 0.0
27/11:00pm 22.0 18.5 3.6 30 9.2 W 11 15 6 8 1018.3 1015.0 0.0
27/10:30pm 21.8 18.2 0.9 25 9.9 WSW 9 15 5 8 1018.5 1015.2 0.0
27/10:00pm 22.6 18.5 -0.2 22 10.6 WSW 11 15 6 8 1018.5 1015.2 0.0
27/09:30pm 23.9 18.2 -0.4 20 11.4 W 19 24 10 13 1018.5 1015.2 0.0
27/09:00pm 24.3 19.0 -0.8 19 11.7 W 17 26 9 14 1018.1 1014.8 0.0
27/08:30pm 24.8 18.9 -1.9 17 12.3 W 19 28 10 15 1017.9 1014.6 0.0
27/08:00pm 25.4 18.6 -2.2 16 12.7 WSW 24 35 13 19 1017.5 1014.2 0.0

Other Formats:

Comma delimited format used in spreadsheet applications
http://www.bom.gov.au/fwo/IDW60801/IDW60801.99312.axf

JavaScript Object Notation format (JSON) in row-major order
http://www.bom.gov.au/fwo/IDW60801/IDW60801.99312.json